Terminal Aerodrome Forecast
Issued by NWS Tampa Bay Area, FL

Home | Current Version | Previous Version | Text Only | Print | Product List | Glossary On
Versions: 1 2 3 4 5 6 7 8 9 10 11 12 13 14 15
000
FTUS42 KTBW 061744
TAFFMY
TAF
KFMY 061744Z 0618/0718 30012KT P6SM FEW060
     FM070100 31010KT P6SM FEW250
     FM070600 34006KT P6SM SKC
     FM071400 36011G18KT P6SM FEW250=

USA.gov is the U.S. government's official web portal to all federal, state and local government web resources and services.